createdAt,value
2018-07-31T00:00:59.598Z,0.00
2018-07-31T00:01:59.585Z,0.00
2018-07-31T00:02:59.574Z,0.00
2018-07-31T00:03:59.577Z,0.00
2018-07-31T00:04:59.556Z,0.00
2018-07-31T00:05:59.546Z,0.00
2018-07-31T00:06:59.537Z,0.00
2018-07-31T00:07:59.532Z,0.00
2018-07-31T00:08:59.513Z,0.00
2018-07-31T00:09:59.543Z,0.00
2018-07-31T00:10:59.498Z,0.00
2018-07-31T00:11:59.483Z,0.00
2018-07-31T00:12:59.481Z,0.00
2018-07-31T00:13:59.462Z,0.00
2018-07-31T00:14:59.450Z,0.00
2018-07-31T00:15:59.443Z,0.00
2018-07-31T00:16:59.430Z,0.00
2018-07-31T00:17:59.421Z,0.00
2018-07-31T00:18:59.421Z,0.00
2018-07-31T00:19:59.399Z,0.00
2018-07-31T00:20:59.388Z,0.00
2018-07-31T00:21:59.381Z,0.00
2018-07-31T00:22:59.377Z,0.00
2018-07-31T00:23:59.359Z,0.00
2018-07-31T00:24:59.352Z,0.00
2018-07-31T00:26:43.464Z,0.00
2018-07-31T00:27:43.458Z,0.00
2018-07-31T00:28:43.449Z,0.00
2018-07-31T00:29:43.431Z,0.00
2018-07-31T00:30:43.429Z,0.00
2018-07-31T00:31:43.416Z,0.00
2018-07-31T00:32:43.568Z,0.00
2018-07-31T00:33:43.388Z,0.00
2018-07-31T00:34:43.387Z,0.00
2018-07-31T00:35:43.372Z,0.00
2018-07-31T00:36:43.359Z,0.00
2018-07-31T00:37:43.350Z,0.00
2018-07-31T00:38:43.336Z,0.00
2018-07-31T00:39:43.323Z,0.00
2018-07-31T00:40:43.314Z,0.00
2018-07-31T00:41:43.304Z,0.00
2018-07-31T00:42:43.292Z,0.00
2018-07-31T00:43:43.286Z,0.00
2018-07-31T00:44:43.269Z,0.00
2018-07-31T00:45:43.261Z,0.00
2018-07-31T00:46:43.277Z,0.00
2018-07-31T00:47:43.240Z,0.00
2018-07-31T00:48:43.229Z,0.00
2018-07-31T00:49:43.217Z,0.00
2018-07-31T00:50:43.205Z,0.00
2018-07-31T00:51:43.202Z,0.00
2018-07-31T00:52:43.183Z,0.00
2018-07-31T00:53:43.175Z,0.00
2018-07-31T00:54:43.164Z,0.00
2018-07-31T00:55:43.151Z,0.00
2018-07-31T00:56:43.144Z,0.00
2018-07-31T00:57:43.146Z,0.00
2018-07-31T00:58:43.131Z,0.00
2018-07-31T00:59:43.107Z,0.00
2018-07-31T01:00:43.099Z,0.00
2018-07-31T01:01:43.089Z,0.00
2018-07-31T01:02:43.088Z,0.00
2018-07-31T01:03:43.064Z,0.00
2018-07-31T01:04:43.055Z,0.00
2018-07-31T01:05:43.051Z,0.00
2018-07-31T01:06:43.040Z,0.00
2018-07-31T01:07:46.660Z,0.00
2018-07-31T01:08:43.010Z,0.00
2018-07-31T01:09:46.635Z,0.00
2018-07-31T01:10:42.999Z,0.00
2018-07-31T01:12:42.441Z,0.00
2018-07-31T01:13:42.418Z,0.00
2018-07-31T01:14:42.406Z,0.00
2018-07-31T01:15:42.395Z,0.00
2018-07-31T01:16:42.387Z,0.00
2018-07-31T01:17:42.372Z,0.00
2018-07-31T01:18:42.365Z,0.00
2018-07-31T01:19:42.350Z,0.00
2018-07-31T01:20:42.341Z,0.00
2018-07-31T01:21:42.331Z,0.00
2018-07-31T01:22:42.320Z,0.00
2018-07-31T01:23:42.309Z,0.00
2018-07-31T01:24:42.296Z,0.00
2018-07-31T01:25:42.283Z,0.00
2018-07-31T01:26:42.273Z,0.00
2018-07-31T01:27:42.344Z,0.00
2018-07-31T01:29:15.461Z,0.00
2018-07-31T01:29:42.240Z,0.00
2018-07-31T01:30:42.232Z,0.00
2018-07-31T01:31:42.218Z,0.00
2018-07-31T01:32:42.208Z,0.00
2018-07-31T01:33:42.200Z,0.00
2018-07-31T01:34:42.183Z,0.00
2018-07-31T01:35:42.172Z,0.00
2018-07-31T01:36:42.164Z,0.00
2018-07-31T01:37:42.151Z,0.00
2018-07-31T01:38:44.762Z,0.00
2018-07-31T01:39:42.128Z,0.00
2018-07-31T01:40:42.120Z,0.00
2018-07-31T01:41:42.106Z,0.00
2018-07-31T01:42:42.093Z,0.00
2018-07-31T01:43:42.084Z,0.00
2018-07-31T01:44:42.071Z,0.00
2018-07-31T01:45:42.082Z,0.00
2018-07-31T01:46:42.049Z,0.00
2018-07-31T01:47:42.041Z,0.00
2018-07-31T01:48:42.030Z,0.00
2018-07-31T01:49:42.017Z,0.00
2018-07-31T01:50:42.008Z,0.00
2018-07-31T01:51:41.995Z,0.00
2018-07-31T01:52:41.992Z,0.00
2018-07-31T01:53:41.971Z,0.00
2018-07-31T01:54:41.970Z,0.00
2018-07-31T01:55:41.947Z,0.00
2018-07-31T01:56:41.938Z,0.00
2018-07-31T01:57:41.932Z,0.00
2018-07-31T01:58:41.915Z,0.00
2018-07-31T01:59:41.944Z,0.00
2018-07-31T02:00:41.897Z,0.00
2018-07-31T02:01:41.884Z,0.00
2018-07-31T02:02:41.870Z,0.00
2018-07-31T02:03:41.857Z,0.00
2018-07-31T02:04:41.847Z,0.00
2018-07-31T02:05:41.839Z,0.00
2018-07-31T02:06:41.826Z,0.00
2018-07-31T02:07:41.966Z,0.00
2018-07-31T02:08:41.832Z,0.00
2018-07-31T02:09:41.791Z,0.00
2018-07-31T02:10:41.779Z,0.00
2018-07-31T02:11:45.023Z,0.00
2018-07-31T02:12:41.754Z,0.00
2018-07-31T02:13:41.750Z,0.00
2018-07-31T02:14:41.732Z,0.00
2018-07-31T02:15:41.726Z,0.00
2018-07-31T02:16:44.331Z,0.00
2018-07-31T02:17:41.706Z,0.00
2018-07-31T02:18:41.697Z,0.00
2018-07-31T02:19:41.673Z,0.00
2018-07-31T02:20:41.662Z,0.00
2018-07-31T02:21:41.657Z,0.00
2018-07-31T02:22:41.644Z,0.00
2018-07-31T02:23:41.779Z,0.00
2018-07-31T02:24:41.617Z,0.00
2018-07-31T02:25:41.608Z,0.00
2018-07-31T02:26:41.627Z,0.00
2018-07-31T02:27:41.600Z,0.00
2018-07-31T02:28:41.605Z,0.00
2018-07-31T02:29:41.563Z,0.00
2018-07-31T02:30:41.554Z,0.00
2018-07-31T02:31:41.537Z,0.00
2018-07-31T02:32:41.524Z,0.00
2018-07-31T02:33:41.512Z,0.00
2018-07-31T02:34:41.503Z,0.00
2018-07-31T02:35:41.490Z,0.00
2018-07-31T02:36:41.480Z,0.00
2018-07-31T02:37:41.470Z,0.00
2018-07-31T02:38:41.467Z,0.00
2018-07-31T02:39:41.443Z,0.00
2018-07-31T02:40:41.430Z,0.00
2018-07-31T02:41:41.425Z,0.00
2018-07-31T02:42:41.406Z,0.00
2018-07-31T02:43:41.395Z,0.00
2018-07-31T02:44:41.385Z,0.00
2018-07-31T02:45:41.373Z,0.00
2018-07-31T02:46:41.361Z,0.00
2018-07-31T02:47:41.435Z,0.00
2018-07-31T02:48:41.340Z,0.00
2018-07-31T02:49:41.331Z,0.00
2018-07-31T02:50:41.316Z,0.00
2018-07-31T02:51:41.304Z,0.00
2018-07-31T02:52:41.293Z,0.00
2018-07-31T02:53:41.289Z,0.00
2018-07-31T02:54:41.269Z,0.00
2018-07-31T02:55:41.260Z,0.00
2018-07-31T02:57:35.389Z,0.00
2018-07-31T02:58:35.377Z,0.00
2018-07-31T02:59:35.361Z,0.00
2018-07-31T03:00:35.362Z,0.00
2018-07-31T03:01:35.346Z,0.00
2018-07-31T03:02:35.327Z,0.00
2018-07-31T03:03:35.338Z,0.00
2018-07-31T03:04:35.305Z,0.00
2018-07-31T03:05:35.299Z,0.00
2018-07-31T03:06:35.281Z,0.00
2018-07-31T03:07:35.268Z,0.00
2018-07-31T03:08:35.262Z,0.00
2018-07-31T03:09:35.248Z,0.00
2018-07-31T03:10:35.234Z,0.00
2018-07-31T03:11:35.224Z,0.00
2018-07-31T03:12:35.212Z,0.00
2018-07-31T03:13:35.198Z,0.00
2018-07-31T03:14:35.188Z,0.00
2018-07-31T03:15:35.172Z,0.00
2018-07-31T03:16:35.199Z,0.00
2018-07-31T03:17:35.149Z,0.00
2018-07-31T03:18:35.145Z,0.00
2018-07-31T03:19:35.164Z,0.00
2018-07-31T03:20:35.124Z,0.00
2018-07-31T03:21:35.111Z,0.00
2018-07-31T03:22:35.097Z,0.00
2018-07-31T03:23:35.090Z,0.00
2018-07-31T03:24:35.069Z,0.00
2018-07-31T03:25:35.059Z,0.00
2018-07-31T03:26:35.046Z,0.00
2018-07-31T03:27:35.036Z,0.00
2018-07-31T03:28:35.021Z,0.00
2018-07-31T03:29:35.016Z,0.00
2018-07-31T03:30:35.008Z,0.00
2018-07-31T03:31:34.986Z,0.00
2018-07-31T03:33:08.186Z,0.00
2018-07-31T03:33:34.960Z,0.00
2018-07-31T03:34:34.949Z,0.00
2018-07-31T03:35:34.938Z,0.00
2018-07-31T03:36:34.926Z,0.00
2018-07-31T03:37:34.915Z,0.00
2018-07-31T03:38:34.902Z,5.63
2018-07-31T03:39:34.888Z,5.63
2018-07-31T03:40:35.047Z,5.63
2018-07-31T03:42:08.075Z,5.63
2018-07-31T03:42:38.284Z,5.63
2018-07-31T03:43:34.910Z,5.63
2018-07-31T03:44:34.834Z,5.63
2018-07-31T03:45:34.821Z,5.63
2018-07-31T03:46:34.807Z,11.25
2018-07-31T03:47:34.795Z,11.25
2018-07-31T03:48:34.785Z,11.25
2018-07-31T03:49:34.769Z,11.25
2018-07-31T03:50:34.756Z,11.25
2018-07-31T03:51:34.744Z,11.25
2018-07-31T03:52:34.733Z,16.88
2018-07-31T03:53:34.724Z,16.88
2018-07-31T03:54:34.713Z,16.88
2018-07-31T03:55:34.739Z,16.88
2018-07-31T03:56:34.803Z,22.50
2018-07-31T03:57:34.673Z,22.50
2018-07-31T03:58:34.658Z,22.50
2018-07-31T04:00:07.857Z,22.50
2018-07-31T04:00:34.631Z,28.13
2018-07-31T04:01:34.624Z,28.13
2018-07-31T04:02:34.611Z,28.13
2018-07-31T04:03:34.602Z,33.75
2018-07-31T04:04:34.600Z,33.75
2018-07-31T04:05:34.643Z,39.38
2018-07-31T04:06:34.564Z,39.38
2018-07-31T04:07:34.552Z,45.00
2018-07-31T04:08:34.541Z,50.63
2018-07-31T04:09:34.525Z,50.63
2018-07-31T04:10:34.512Z,50.63
2018-07-31T04:11:34.509Z,50.63
2018-07-31T04:12:34.517Z,50.63
2018-07-31T04:13:34.481Z,56.25
2018-07-31T04:14:34.466Z,56.25
2018-07-31T04:15:34.459Z,56.25
2018-07-31T04:16:34.443Z,56.25
2018-07-31T04:17:34.430Z,56.25
2018-07-31T04:18:34.437Z,56.25
2018-07-31T04:19:34.406Z,61.88
2018-07-31T04:20:34.396Z,61.88
2018-07-31T04:21:34.379Z,61.88
2018-07-31T04:22:34.369Z,67.50
2018-07-31T04:23:34.356Z,67.50
2018-07-31T04:24:34.352Z,73.13
2018-07-31T04:25:34.335Z,78.75
2018-07-31T04:26:34.322Z,84.38
2018-07-31T04:27:34.309Z,84.38
2018-07-31T04:28:34.299Z,84.38
2018-07-31T04:29:34.283Z,90.00
2018-07-31T04:30:34.274Z,90.00
2018-07-31T04:31:34.261Z,95.63
2018-07-31T04:32:34.259Z,95.63
2018-07-31T04:33:34.236Z,95.63
2018-07-31T04:34:34.228Z,101.25
2018-07-31T04:35:34.215Z,101.25
2018-07-31T04:36:34.221Z,106.88
2018-07-31T04:37:34.188Z,106.88
2018-07-31T04:38:34.177Z,106.88
2018-07-31T04:39:34.169Z,112.50
2018-07-31T04:40:34.153Z,118.13
2018-07-31T04:41:34.142Z,118.13
2018-07-31T04:42:34.130Z,123.75
2018-07-31T04:43:34.118Z,123.75
2018-07-31T04:44:34.110Z,123.75
2018-07-31T04:45:34.092Z,123.75
2018-07-31T04:46:34.079Z,129.38
2018-07-31T04:47:34.070Z,135.00
2018-07-31T04:48:34.056Z,140.63
2018-07-31T04:49:34.046Z,140.63
2018-07-31T04:50:34.036Z,146.25
2018-07-31T04:51:34.030Z,151.88
2018-07-31T04:52:34.139Z,151.88
2018-07-31T04:53:33.997Z,157.50
2018-07-31T04:54:33.986Z,163.13
2018-07-31T04:55:33.986Z,168.75
2018-07-31T04:56:33.965Z,168.75
2018-07-31T04:57:33.957Z,168.75
2018-07-31T04:58:33.938Z,174.38
2018-07-31T04:59:33.927Z,174.38
2018-07-31T05:00:33.914Z,174.38
2018-07-31T05:01:33.903Z,174.38
2018-07-31T05:02:33.894Z,174.38
2018-07-31T05:03:33.879Z,174.38
2018-07-31T05:04:33.874Z,174.38
2018-07-31T05:05:33.860Z,185.63
2018-07-31T05:06:33.844Z,191.25
2018-07-31T05:07:33.834Z,196.88
2018-07-31T05:08:33.930Z,208.13
2018-07-31T05:09:33.811Z,213.75
2018-07-31T05:10:33.796Z,213.75
2018-07-31T05:11:33.784Z,219.38
2018-07-31T05:12:33.783Z,225.00
2018-07-31T05:13:33.774Z,236.25
2018-07-31T05:14:33.751Z,247.50
2018-07-31T05:15:33.741Z,258.75
2018-07-31T05:16:33.726Z,275.63
2018-07-31T05:17:33.717Z,286.88
2018-07-31T05:18:33.703Z,286.88
2018-07-31T05:19:33.743Z,298.13
2018-07-31T05:20:33.680Z,286.88
2018-07-31T05:21:33.670Z,275.63
2018-07-31T05:22:33.657Z,275.63
2018-07-31T05:23:33.645Z,264.38
2018-07-31T05:24:33.633Z,258.75
2018-07-31T05:25:33.623Z,258.75
2018-07-31T05:26:33.620Z,264.38
2018-07-31T05:27:33.598Z,270.00
2018-07-31T05:28:33.592Z,281.25
2018-07-31T05:29:33.577Z,286.88
2018-07-31T05:30:33.567Z,281.25
2018-07-31T05:31:33.556Z,281.25
2018-07-31T05:32:33.573Z,286.88
2018-07-31T05:33:33.535Z,303.75
2018-07-31T05:34:33.520Z,309.38
2018-07-31T05:35:33.562Z,320.63
2018-07-31T05:36:33.501Z,337.50
2018-07-31T05:37:33.486Z,365.63
2018-07-31T05:38:33.476Z,500.63
2018-07-31T05:39:33.500Z,770.63
2018-07-31T05:40:33.453Z,900.00
2018-07-31T05:41:33.443Z,956.25
2018-07-31T05:42:33.449Z,1029.38
2018-07-31T05:43:33.419Z,1125.00
2018-07-31T05:44:33.410Z,1243.13
2018-07-31T05:45:33.400Z,1423.13
2018-07-31T05:46:33.393Z,1575.00
2018-07-31T05:47:33.388Z,1631.25
2018-07-31T05:48:33.514Z,1108.13
2018-07-31T05:49:33.370Z,1434.38
2018-07-31T05:50:33.352Z,1327.50
2018-07-31T05:51:33.388Z,1288.13
2018-07-31T05:52:33.333Z,1411.88
2018-07-31T05:53:33.326Z,1378.13
2018-07-31T05:54:33.320Z,1366.88
2018-07-31T05:55:33.309Z,1260.00
2018-07-31T05:56:33.301Z,1350.00
2018-07-31T05:57:33.378Z,1378.13
2018-07-31T05:58:33.288Z,1164.38
2018-07-31T05:59:33.281Z,1344.38
2018-07-31T06:00:33.271Z,1310.63
2018-07-31T06:01:33.268Z,1282.50
2018-07-31T06:02:33.276Z,1513.13
2018-07-31T06:03:33.302Z,1546.88
2018-07-31T06:04:33.310Z,1490.63
2018-07-31T06:05:33.240Z,1372.50
2018-07-31T06:06:33.254Z,1451.25
2018-07-31T06:07:33.228Z,1485.00
2018-07-31T06:08:33.233Z,1411.88
2018-07-31T06:09:33.384Z,1344.38
2018-07-31T06:10:33.213Z,1428.75
2018-07-31T06:11:33.610Z,1563.75
2018-07-31T06:12:33.214Z,1462.50
2018-07-31T06:13:33.197Z,1530.00
2018-07-31T06:14:33.206Z,1462.50
2018-07-31T06:15:33.197Z,1591.88
2018-07-31T06:16:33.182Z,1591.88
2018-07-31T06:17:33.181Z,1569.38
2018-07-31T06:18:33.175Z,1428.75
2018-07-31T06:19:33.176Z,1293.75
2018-07-31T06:20:33.172Z,1254.38
2018-07-31T06:21:33.165Z,1215.00
2018-07-31T06:22:33.280Z,1231.88
2018-07-31T06:23:33.160Z,1220.63
2018-07-31T06:24:33.160Z,1192.50
2018-07-31T06:25:33.244Z,1192.50
2018-07-31T06:26:33.157Z,1434.38
2018-07-31T06:27:33.156Z,1648.13
2018-07-31T06:28:33.147Z,2064.38
2018-07-31T06:29:33.163Z,2115.00
2018-07-31T06:30:33.144Z,1951.88
2018-07-31T06:31:33.140Z,1794.38
2018-07-31T06:32:33.138Z,1783.13
2018-07-31T06:33:33.138Z,1749.38
2018-07-31T06:34:33.135Z,1828.13
2018-07-31T06:35:33.140Z,1856.25
2018-07-31T06:36:33.141Z,1957.50
2018-07-31T06:37:33.133Z,1698.75
2018-07-31T06:38:33.133Z,1659.38
2018-07-31T06:39:33.131Z,1816.88
2018-07-31T06:40:33.189Z,1749.38
2018-07-31T06:41:33.136Z,1935.00
2018-07-31T06:42:33.128Z,2137.50
2018-07-31T06:43:33.211Z,2199.38
2018-07-31T06:44:33.125Z,2188.13
2018-07-31T06:45:33.125Z,1884.38
2018-07-31T06:46:33.125Z,1456.88
2018-07-31T06:47:33.123Z,1378.13
2018-07-31T06:48:33.123Z,1912.50
2018-07-31T06:49:33.126Z,2143.13
2018-07-31T06:50:33.125Z,2328.75
2018-07-31T06:51:33.205Z,2295.00
2018-07-31T06:52:33.122Z,2379.38
2018-07-31T06:53:33.121Z,2261.25
2018-07-31T06:54:33.122Z,2025.00
2018-07-31T06:55:33.119Z,1614.38
2018-07-31T06:56:33.124Z,1653.75
2018-07-31T06:57:33.122Z,2047.50
2018-07-31T06:58:33.120Z,1012.50
2018-07-31T06:59:33.120Z,1991.25
2018-07-31T07:00:33.120Z,961.88
2018-07-31T07:01:33.120Z,1181.25
2018-07-31T07:02:33.115Z,2503.13
2018-07-31T07:03:33.124Z,1968.75
2018-07-31T07:04:33.118Z,1170.00
2018-07-31T07:05:33.113Z,1012.50
2018-07-31T07:06:33.112Z,967.50
2018-07-31T07:07:33.112Z,1310.63
2018-07-31T07:08:33.109Z,1141.88
2018-07-31T07:09:33.110Z,1226.25
2018-07-31T07:10:33.109Z,759.38
2018-07-31T07:11:33.108Z,776.25
2018-07-31T07:12:33.143Z,748.13
2018-07-31T07:13:33.110Z,759.38
2018-07-31T07:14:33.101Z,849.38
2018-07-31T07:15:33.145Z,905.63
2018-07-31T07:16:33.101Z,995.63
2018-07-31T07:17:33.093Z,1181.25
2018-07-31T07:18:33.096Z,1164.38
2018-07-31T07:19:33.089Z,1406.25
2018-07-31T07:20:33.087Z,888.75
2018-07-31T07:21:33.084Z,1226.25
2018-07-31T07:22:33.095Z,860.63
2018-07-31T07:23:33.087Z,1130.63
2018-07-31T07:24:33.076Z,1164.38
2018-07-31T07:25:33.076Z,1631.25
2018-07-31T07:26:33.078Z,1265.63
2018-07-31T07:27:33.071Z,1035.00
2018-07-31T07:28:33.067Z,748.13
2018-07-31T07:29:33.065Z,708.75
2018-07-31T07:30:33.063Z,765.00
2018-07-31T07:31:33.060Z,714.38
2018-07-31T07:32:33.065Z,675.00
2018-07-31T07:33:33.096Z,770.63
2018-07-31T07:34:33.057Z,838.13
2018-07-31T07:35:33.246Z,1102.50
2018-07-31T07:36:33.045Z,1198.13
2018-07-31T07:37:33.043Z,933.75
2018-07-31T07:38:33.096Z,691.88
2018-07-31T07:39:33.040Z,686.25
2018-07-31T07:40:33.036Z,793.13
2018-07-31T07:41:33.042Z,832.50
2018-07-31T07:42:33.027Z,832.50
2018-07-31T07:43:33.026Z,916.88
2018-07-31T07:44:33.034Z,1130.63
2018-07-31T07:45:33.017Z,1063.13
2018-07-31T07:46:33.014Z,860.63
2018-07-31T07:47:33.007Z,843.75
2018-07-31T07:48:33.042Z,849.38
2018-07-31T07:49:33.011Z,871.88
2018-07-31T07:50:33.004Z,928.13
2018-07-31T07:51:33.000Z,860.63
2018-07-31T07:52:32.988Z,871.88
2018-07-31T07:53:32.987Z,877.50
2018-07-31T07:54:32.983Z,888.75
2018-07-31T07:55:32.978Z,894.38
2018-07-31T07:56:32.978Z,1012.50
2018-07-31T07:57:32.972Z,1029.38
2018-07-31T07:58:32.975Z,866.25
2018-07-31T07:59:32.963Z,843.75
2018-07-31T08:00:32.969Z,871.88
2018-07-31T08:01:32.958Z,871.88
2018-07-31T08:02:32.951Z,838.13
2018-07-31T08:03:32.947Z,871.88
2018-07-31T08:04:32.945Z,843.75
2018-07-31T08:05:32.942Z,821.25
2018-07-31T08:06:32.941Z,826.88
2018-07-31T08:07:32.932Z,787.50
2018-07-31T08:08:33.243Z,765.00
2018-07-31T08:09:33.012Z,781.88
2018-07-31T08:10:32.920Z,770.63
2018-07-31T08:11:32.913Z,765.00
2018-07-31T08:12:32.969Z,770.63
2018-07-31T08:13:32.904Z,781.88
2018-07-31T08:14:32.900Z,832.50
2018-07-31T08:15:32.896Z,838.13
2018-07-31T08:16:32.890Z,826.88
2018-07-31T08:17:32.897Z,804.38
2018-07-31T08:18:32.882Z,759.38
2018-07-31T08:19:32.886Z,725.63
2018-07-31T08:20:32.880Z,691.88
2018-07-31T08:21:32.870Z,686.25
2018-07-31T08:22:32.917Z,675.00
2018-07-31T08:23:32.860Z,663.75
2018-07-31T08:24:32.857Z,652.50
2018-07-31T08:25:32.898Z,663.75
2018-07-31T08:26:32.903Z,675.00
2018-07-31T08:27:32.842Z,691.88
2018-07-31T08:28:32.839Z,607.50
2018-07-31T08:30:32.828Z,506.25
2018-07-31T08:31:32.829Z,568.13
2018-07-31T08:32:32.817Z,545.63
2018-07-31T08:33:32.864Z,545.63
2018-07-31T08:34:32.824Z,568.13
2018-07-31T08:35:32.800Z,624.38
2018-07-31T08:36:32.800Z,697.50
2018-07-31T08:37:32.791Z,703.13
2018-07-31T08:38:32.787Z,691.88
2018-07-31T08:39:32.788Z,697.50
2018-07-31T08:40:32.779Z,720.00
2018-07-31T08:41:32.778Z,736.88
2018-07-31T08:42:32.767Z,742.50
2018-07-31T08:43:32.888Z,781.88
2018-07-31T08:44:32.756Z,781.88
2018-07-31T08:45:32.749Z,804.38
2018-07-31T08:46:32.752Z,950.63
2018-07-31T08:47:32.739Z,838.13
2018-07-31T08:48:32.735Z,714.38
2018-07-31T08:49:32.728Z,669.38
2018-07-31T08:50:32.725Z,624.38
2018-07-31T08:51:32.719Z,669.38
2018-07-31T08:52:32.715Z,804.38
2018-07-31T08:53:32.707Z,641.25
2018-07-31T08:54:32.704Z,630.00
2018-07-31T08:55:32.701Z,618.75
2018-07-31T08:56:32.705Z,607.50
2018-07-31T08:57:32.687Z,596.25
2018-07-31T08:58:32.685Z,585.00
2018-07-31T08:59:32.757Z,573.75
2018-07-31T09:00:32.669Z,585.00
2018-07-31T09:01:32.667Z,590.63
2018-07-31T09:02:32.670Z,556.88
2018-07-31T09:03:32.656Z,641.25
2018-07-31T09:04:32.653Z,630.00
2018-07-31T09:05:32.645Z,1113.75
2018-07-31T09:06:32.643Z,1265.63
2018-07-31T09:07:32.640Z,1282.50
2018-07-31T09:08:32.701Z,956.25
2018-07-31T09:09:32.623Z,815.63
2018-07-31T09:10:32.699Z,843.75
2018-07-31T09:11:32.614Z,939.38
2018-07-31T09:12:32.615Z,984.38
2018-07-31T09:13:32.605Z,967.50
2018-07-31T09:14:32.602Z,1648.13
2018-07-31T09:15:32.693Z,1513.13
2018-07-31T09:16:32.587Z,1288.13
2018-07-31T09:17:32.621Z,1108.13
2018-07-31T09:18:32.577Z,1006.88
2018-07-31T09:19:32.579Z,973.13
2018-07-31T09:20:32.568Z,1080.00
2018-07-31T09:21:32.564Z,956.25
2018-07-31T09:22:32.560Z,956.25
2018-07-31T09:23:32.558Z,978.75
2018-07-31T09:24:32.681Z,1215.00
2018-07-31T09:25:32.555Z,995.63
2018-07-31T09:26:32.552Z,995.63
2018-07-31T09:27:32.541Z,1175.63
2018-07-31T09:28:32.534Z,1068.75
2018-07-31T09:29:32.533Z,1215.00
2018-07-31T09:30:32.544Z,1198.13
2018-07-31T09:31:32.528Z,1243.13
2018-07-31T09:32:32.523Z,1260.00
2018-07-31T09:33:32.635Z,1569.38
2018-07-31T09:34:32.518Z,1755.00
2018-07-31T09:35:32.513Z,1406.25
2018-07-31T09:36:32.535Z,1929.38
2018-07-31T09:37:32.503Z,1428.75
2018-07-31T09:38:32.505Z,1231.88
2018-07-31T09:39:32.497Z,1057.50
2018-07-31T09:40:32.496Z,1001.25
2018-07-31T09:41:32.489Z,1035.00
2018-07-31T09:42:32.492Z,1119.38
2018-07-31T09:43:32.481Z,1316.25
2018-07-31T09:44:32.487Z,1552.50
2018-07-31T09:45:32.474Z,1648.13
2018-07-31T09:46:32.606Z,1771.88
2018-07-31T09:47:32.469Z,2458.13
2018-07-31T09:48:32.499Z,1400.63
2018-07-31T09:49:32.460Z,2216.25
2018-07-31T09:50:32.466Z,1800.00
2018-07-31T09:51:32.459Z,1248.75
2018-07-31T09:52:32.462Z,1063.13
2018-07-31T09:53:32.454Z,1074.38
2018-07-31T09:54:32.459Z,1282.50
2018-07-31T09:55:32.447Z,1816.88
2018-07-31T09:56:32.454Z,1293.75
2018-07-31T09:57:32.443Z,1113.75
2018-07-31T09:58:32.442Z,1366.88
2018-07-31T09:59:32.505Z,1299.38
2018-07-31T10:00:32.438Z,1501.88
2018-07-31T10:01:32.486Z,2019.38
2018-07-31T10:02:32.483Z,2070.00
2018-07-31T10:03:32.433Z,2115.00
2018-07-31T10:04:32.429Z,3695.63
2018-07-31T10:05:32.456Z,3853.13
2018-07-31T10:06:32.431Z,3127.50
2018-07-31T10:07:32.436Z,4522.50
2018-07-31T10:08:32.431Z,5096.25
2018-07-31T10:09:32.424Z,4876.88
2018-07-31T10:10:32.439Z,4595.63
2018-07-31T10:11:32.426Z,4505.63
2018-07-31T10:12:32.524Z,4336.88
2018-07-31T10:13:32.424Z,3150.00
2018-07-31T10:14:32.437Z,4140.00
2018-07-31T10:15:32.472Z,4016.25
2018-07-31T10:16:32.456Z,3054.38
2018-07-31T10:17:32.435Z,2604.38
2018-07-31T10:18:32.438Z,3324.38
2018-07-31T10:19:32.441Z,1012.50
2018-07-31T10:20:32.456Z,905.63
2018-07-31T10:21:32.457Z,1023.75
2018-07-31T10:22:32.469Z,1344.38
2018-07-31T10:23:32.453Z,1012.50
2018-07-31T10:24:32.509Z,922.50
2018-07-31T10:25:32.466Z,900.00
2018-07-31T10:26:32.457Z,1175.63
2018-07-31T10:27:32.461Z,1501.88
2018-07-31T10:28:32.463Z,1946.25
2018-07-31T10:29:32.464Z,3031.88
2018-07-31T10:30:32.688Z,3290.63
2018-07-31T10:31:32.466Z,2677.50
2018-07-31T10:32:32.467Z,2250.00
2018-07-31T10:33:32.470Z,1957.50
2018-07-31T10:34:32.484Z,4151.25
2018-07-31T10:35:32.482Z,4764.38
2018-07-31T10:36:32.477Z,4843.13
2018-07-31T10:37:32.522Z,3920.63
2018-07-31T10:38:32.481Z,3240.00
2018-07-31T10:39:32.482Z,1805.63
2018-07-31T10:40:32.483Z,2053.13
2018-07-31T10:41:32.491Z,2728.13
2018-07-31T10:42:32.490Z,3093.75
2018-07-31T10:43:32.633Z,3729.38
2018-07-31T10:44:32.509Z,3740.63
2018-07-31T10:45:32.501Z,2919.38
2018-07-31T10:46:32.502Z,1901.25
2018-07-31T10:47:32.506Z,2154.38
2018-07-31T10:48:32.508Z,1164.38
2018-07-31T10:49:32.511Z,849.38
2018-07-31T10:50:32.542Z,793.13
2018-07-31T10:51:32.521Z,759.38
2018-07-31T10:52:32.534Z,748.13
2018-07-31T10:53:32.530Z,759.38
2018-07-31T10:54:32.525Z,832.50
2018-07-31T10:55:32.546Z,838.13
2018-07-31T10:56:32.593Z,843.75
2018-07-31T10:57:32.533Z,905.63
2018-07-31T10:58:32.638Z,1046.25
2018-07-31T10:59:32.572Z,1929.38
2018-07-31T11:00:32.534Z,1192.50
2018-07-31T11:01:35.151Z,1271.25
2018-07-31T11:02:32.532Z,1957.50
2018-07-31T11:03:32.534Z,1805.63
2018-07-31T11:05:17.488Z,2036.25
2018-07-31T11:06:17.496Z,1980.00
2018-07-31T11:07:17.489Z,2148.75
2018-07-31T11:08:17.488Z,2261.25
2018-07-31T11:09:17.489Z,2418.75
2018-07-31T11:10:17.497Z,2188.13
2018-07-31T11:11:17.488Z,1788.75
2018-07-31T11:12:17.488Z,2115.00
2018-07-31T11:13:17.545Z,1760.63
2018-07-31T11:14:17.490Z,1698.75
2018-07-31T11:15:17.588Z,3909.38
2018-07-31T11:16:17.489Z,3718.13
2018-07-31T11:17:17.498Z,2120.63
2018-07-31T11:18:17.490Z,2553.75
2018-07-31T11:19:17.495Z,4601.25
2018-07-31T11:20:17.503Z,4741.88
2018-07-31T11:21:17.510Z,1383.75
2018-07-31T11:22:17.495Z,4398.75
2018-07-31T11:23:17.498Z,4511.25
2018-07-31T11:24:17.508Z,4432.50
2018-07-31T11:25:17.501Z,1923.75
2018-07-31T11:26:17.516Z,720.00
2018-07-31T11:27:17.509Z,641.25
2018-07-31T11:28:17.583Z,804.38
2018-07-31T11:29:17.524Z,928.13
2018-07-31T11:30:17.519Z,1552.50
2018-07-31T11:31:17.519Z,4061.25
2018-07-31T11:32:17.523Z,3841.88
2018-07-31T11:33:17.525Z,3864.38
2018-07-31T11:34:17.527Z,3774.38
2018-07-31T11:35:17.538Z,4156.88
2018-07-31T11:36:17.544Z,781.88
2018-07-31T11:37:17.535Z,753.75
2018-07-31T11:38:17.551Z,646.88
2018-07-31T11:39:17.544Z,646.88
2018-07-31T11:40:17.545Z,883.13
2018-07-31T11:41:17.563Z,4190.63
2018-07-31T11:42:17.549Z,2913.75
2018-07-31T11:43:17.570Z,3920.63
2018-07-31T11:44:17.555Z,3841.88
2018-07-31T11:45:17.565Z,3903.75
2018-07-31T11:46:17.614Z,4010.63
2018-07-31T11:47:17.564Z,3847.50
2018-07-31T11:48:17.568Z,3650.63
2018-07-31T11:49:17.573Z,3397.50
2018-07-31T11:50:17.578Z,652.50
2018-07-31T11:51:17.574Z,3470.63
2018-07-31T11:52:17.580Z,1108.13
2018-07-31T11:53:17.580Z,1963.13
2018-07-31T11:54:17.583Z,984.38
2018-07-31T11:55:17.586Z,838.13
2018-07-31T11:56:17.744Z,866.25
2018-07-31T11:57:17.590Z,759.38
2018-07-31T11:58:17.605Z,613.13
2018-07-31T11:59:17.595Z,663.75
2018-07-31T12:00:17.602Z,646.88
2018-07-31T12:01:17.600Z,545.63
2018-07-31T12:02:17.610Z,472.50
2018-07-31T12:03:17.610Z,450.00
2018-07-31T12:04:17.623Z,461.25
2018-07-31T12:05:17.611Z,450.00
2018-07-31T12:06:17.667Z,461.25
2018-07-31T12:07:17.605Z,489.38
2018-07-31T12:08:17.606Z,466.88
2018-07-31T12:09:17.653Z,433.13
2018-07-31T12:10:17.605Z,405.00
2018-07-31T12:11:17.610Z,393.75
2018-07-31T12:12:17.612Z,354.38
2018-07-31T12:13:17.602Z,455.63
2018-07-31T12:14:17.602Z,506.25
2018-07-31T12:15:17.619Z,466.88
2018-07-31T12:16:17.602Z,450.00
2018-07-31T12:17:17.609Z,433.13
2018-07-31T12:18:17.610Z,421.88
2018-07-31T12:19:17.617Z,421.88
2018-07-31T12:20:17.607Z,421.88
2018-07-31T12:21:17.593Z,410.63
2018-07-31T12:22:17.642Z,405.00
2018-07-31T12:23:17.588Z,393.75
2018-07-31T12:24:17.583Z,393.75
2018-07-31T12:25:17.581Z,393.75
2018-07-31T12:26:17.578Z,393.75
2018-07-31T12:27:17.584Z,388.13
2018-07-31T12:28:17.574Z,388.13
2018-07-31T12:29:17.570Z,376.88
2018-07-31T12:30:17.583Z,405.00
2018-07-31T12:31:17.565Z,483.75
2018-07-31T12:32:17.579Z,590.63
2018-07-31T12:33:17.568Z,534.38
2018-07-31T12:34:17.553Z,528.75
2018-07-31T12:35:17.556Z,461.25
2018-07-31T12:36:17.549Z,511.88
2018-07-31T12:37:17.644Z,483.75
2018-07-31T12:38:17.616Z,534.38
2018-07-31T12:39:17.542Z,506.25
2018-07-31T12:40:17.572Z,427.50
2018-07-31T12:41:17.546Z,376.88